Time;durP1;ratioP1;P1;durP2;ratioP2;P2;SDS_P1;SDS_P2;PMS_P1;PMS_P2;Temp;Humidity;BMP_temperature;BMP_pressure;BME280_temperature;BME280_humidity;BME280_pressure;Samples;Min_cycle;Max_cycle;Signal;HPM_P1;HPM_P2
2023/01/24 00:00:58;;;;;;;84.97;32.75;;;;;;;1.26;100.00;102550.13;5060352;28;20465;-73
2023/01/24 00:03:23;;;;;;;86.30;30.55;;;;;;;1.32;100.00;102551.44;5094322;28;20170;-73
2023/01/24 00:06:10;;;;;;;88.30;31.15;;;;;;;1.35;100.00;102547.91;5075494;28;20129;-74
2023/01/24 00:08:36;;;;;;;85.88;32.00;;;;;;;1.38;100.00;102546.31;5075644;28;20056;-73
2023/01/24 00:11:05;;;;;;;78.88;29.63;;;;;;;1.41;100.00;102542.75;5092597;28;20075;-72
2023/01/24 00:13:31;;;;;;;78.72;30.90;;;;;;;1.44;100.00;102530.75;5075757;28;20504;-73
2023/01/24 00:16:19;;;;;;;76.43;28.83;;;;;;;1.46;100.00;102528.34;5093414;28;20035;-73
2023/01/24 00:18:45;;;;;;;78.07;30.98;;;;;;;1.44;100.00;102542.03;5093377;28;20052;-73
2023/01/24 00:21:25;;;;;;;78.60;30.55;;;;;;;1.42;100.00;102535.94;5058699;28;20047;-72
2023/01/24 00:24:10;;;;;;;79.38;30.38;;;;;;;1.37;100.00;102542.69;5076454;28;20032;-72
2023/01/24 00:26:42;;;;;;;86.53;29.92;;;;;;;1.40;100.00;102538.34;5092844;28;20489;-73
2023/01/24 00:29:07;;;;;;;77.38;31.15;;;;;;;1.48;100.00;102537.25;5093391;28;20031;-73
2023/01/24 00:31:38;;;;;;;89.78;30.38;;;;;;;1.43;100.00;102540.38;5093088;28;20028;-73
2023/01/24 00:34:04;;;;;;;82.18;30.88;;;;;;;1.41;100.00;102540.75;5092533;28;20350;-72
2023/01/24 00:36:30;;;;;;;71.70;30.25;;;;;;;1.36;100.00;102546.69;5074759;28;20066;-72
2023/01/24 00:38:56;;;;;;;84.80;31.33;;;;;;;1.37;100.00;102542.69;5093040;28;20095;-72
2023/01/24 00:41:21;;;;;;;71.75;29.88;;;;;;;1.38;100.00;102549.16;5092967;28;20453;-73
2023/01/24 00:43:52;;;;;;;83.75;31.60;;;;;;;1.45;100.00;102543.66;5074907;28;20027;-72
2023/01/24 00:46:17;;;;;;;83.50;34.85;;;;;;;1.44;100.00;102544.84;5093023;28;20059;-73
2023/01/24 00:48:43;;;;;;;83.07;31.92;;;;;;;1.48;100.00;102546.53;5094141;28;20381;-72
2023/01/24 00:51:09;;;;;;;75.32;29.73;;;;;;;1.50;100.00;102548.16;5094020;28;20169;-73
2023/01/24 00:53:35;;;;;;;80.43;31.75;;;;;;;1.51;100.00;102558.22;5093900;28;20081;-72
2023/01/24 00:56:02;;;;;;;83.68;31.10;;;;;;;1.52;100.00;102555.03;5092483;28;20043;-71
2023/01/24 00:58:27;;;;;;;82.40;29.85;;;;;;;1.52;100.00;102557.03;5075631;28;20500;-71
2023/01/24 01:01:00;;;;;;;80.82;30.48;;;;;;;1.45;100.00;102563.38;5093700;28;20032;-73
2023/01/24 01:03:29;;;;;;;84.10;29.27;;;;;;;1.42;100.00;102575.38;5094103;28;20032;-72
2023/01/24 01:06:07;;;;;;;74.93;31.48;;;;;;;1.45;100.00;102574.63;5093652;28;20054;-73
2023/01/24 01:08:44;;;;;;;80.20;30.35;;;;;;;1.48;100.00;102573.88;5093774;28;20077;-72
2023/01/24 01:11:10;;;;;;;75.50;29.05;;;;;;;1.42;100.00;102566.91;5093264;28;20036;-72
2023/01/24 01:13:37;;;;;;;73.20;29.63;;;;;;;1.35;100.00;102573.25;5092457;28;20039;-72
2023/01/24 01:16:13;;;;;;;78.30;30.45;;;;;;;1.35;100.00;102569.63;5075640;28;20070;-72
2023/01/24 01:18:40;;;;;;;84.43;31.48;;;;;;;1.36;100.00;102579.66;5093968;28;20032;-73
2023/01/24 01:21:06;;;;;;;84.88;33.15;;;;;;;1.36;100.00;102565.59;5093537;28;20441;-72
2023/01/24 01:23:38;;;;;;;77.57;29.48;;;;;;;1.46;100.00;102574.25;5075926;28;20070;-71
2023/01/24 01:26:08;;;;;;;81.28;30.27;;;;;;;1.48;100.00;102573.88;5093951;28;20404;-71
2023/01/24 01:28:36;;;;;;;71.78;29.92;;;;;;;1.50;100.00;102570.69;5076439;28;20036;-70
2023/01/24 01:31:02;;;;;;;65.35;27.33;;;;;;;1.54;100.00;102574.38;5098471;28;20052;-72
2023/01/24 01:33:29;;;;;;;75.50;30.65;;;;;;;1.56;100.00;102575.63;5104665;28;20032;-72
2023/01/24 01:35:55;;;;;;;82.22;30.45;;;;;;;1.52;100.00;102579.56;5086255;28;20040;-72
2023/01/24 01:38:24;;;;;;;81.10;33.15;;;;;;;1.50;100.00;102576.31;5076551;28;20031;-73
2023/01/24 01:40:51;;;;;;;78.47;29.92;;;;;;;1.50;100.00;102573.50;5073372;28;20021;-70
2023/01/24 01:43:27;;;;;;;81.47;33.15;;;;;;;1.46;100.00;102579.06;5072853;28;20062;-71
2023/01/24 01:46:18;;;;;;;73.60;30.08;;;;;;;1.51;100.00;102580.75;5072160;28;20101;-72
2023/01/24 01:48:48;;;;;;;77.13;28.73;;;;;;;1.50;100.00;102576.31;5071551;28;20044;-71
2023/01/24 01:51:22;;;;;;;75.53;29.55;;;;;;;1.56;100.00;102570.00;5071736;28;20032;-71
2023/01/24 01:54:04;;;;;;;75.45;29.05;;;;;;;1.60;100.00;102562.41;5071847;28;20039;-71
2023/01/24 01:56:55;;;;;;;72.05;27.35;;;;;;;1.59;100.00;102566.44;5071867;28;20029;-71
2023/01/24 01:59:33;;;;;;;83.93;32.17;;;;;;;1.62;100.00;102567.69;5062699;28;20044;-72
2023/01/24 02:01:59;;;;;;;77.07;28.88;;;;;;;1.63;100.00;102558.84;5055202;28;20033;-71
2023/01/24 02:04:37;;;;;;;65.68;29.50;;;;;;;1.67;100.00;102561.72;5055078;28;20108;-71
2023/01/24 02:07:14;;;;;;;74.65;30.52;;;;;;;1.67;100.00;102565.38;5071605;28;20037;-71
2023/01/24 02:09:42;;;;;;;76.03;29.73;;;;;;;1.68;100.00;102560.53;5071154;28;20042;-71
2023/01/24 02:12:12;;;;;;;75.35;31.55;;;;;;;1.64;100.00;102551.22;5071178;28;20032;-71
2023/01/24 02:17:35;;;;;;;70.70;29.00;;;;;;;1.68;100.00;102546.47;5070962;28;20039;-72
2023/01/24 02:20:28;;;;;;;72.45;28.05;;;;;;;1.72;100.00;102544.50;5071678;28;20400;-72
2023/01/24 02:23:21;;;;;;;78.00;31.85;;;;;;;1.84;100.00;102539.50;5074572;28;20478;-72
2023/01/24 02:26:04;;;;;;;77.70;30.88;;;;;;;1.79;100.00;102539.81;5075662;28;20107;-71
2023/01/24 02:28:30;;;;;;;73.40;28.67;;;;;;;1.81;100.00;102534.59;5076167;28;20036;-71
2023/01/24 02:30:59;;;;;;;70.55;30.77;;;;;;;1.76;100.00;102536.91;5057854;28;20073;-73
2023/01/24 02:33:25;;;;;;;76.10;30.70;;;;;;;1.77;100.00;102536.56;5040732;28;20036;-72
2023/01/24 02:35:51;;;;;;;73.00;28.80;;;;;;;1.81;100.00;102536.59;5074008;28;20105;-73
2023/01/24 02:38:24;;;;;;;67.97;28.60;;;;;;;1.87;100.00;102530.28;5074091;28;20077;-72
2023/01/24 02:41:08;;;;;;;75.88;30.77;;;;;;;1.99;100.00;102536.91;5057503;28;20035;-72
2023/01/24 02:43:36;;;;;;;69.88;28.70;;;;;;;2.07;100.00;102533.00;5055836;28;20040;-73
2023/01/24 02:46:04;;;;;;;57.83;26.88;;;;;;;2.14;100.00;102531.09;5074163;28;20029;-71
2023/01/24 02:48:30;;;;;;;72.53;28.48;;;;;;;2.18;100.00;102531.16;5075212;28;20040;-71
2023/01/24 02:53:41;;;;;;;68.40;27.42;;;;;;;2.24;100.00;102533.25;5076650;28;20054;-72
2023/01/24 02:58:53;;;;;;;58.20;26.27;;;;;;;2.12;100.00;102527.84;5075350;28;20094;-71
2023/01/24 03:01:21;;;;;;;67.60;30.80;;;;;;;2.08;100.00;102520.53;5076045;28;20029;-71
2023/01/24 03:03:50;;;;;;;71.22;29.20;;;;;;;2.12;100.00;102530.66;5074607;28;20032;-71
2023/01/24 03:06:17;;;;;;;70.65;28.67;;;;;;;2.12;100.00;102533.47;5074896;28;20071;-71
2023/01/24 03:08:45;;;;;;;61.50;27.52;;;;;;;2.12;100.00;102535.47;5075170;28;20029;-73
2023/01/24 03:11:12;;;;;;;75.95;29.20;;;;;;;2.06;100.00;102529.34;5074852;28;20068;-72
2023/01/24 03:35:55;;;;;;;64.70;26.17;;;;;;;1.83;100.00;102553.97;5092619;28;20511;-70
2023/01/24 03:41:06;;;;;;;59.35;27.58;;;;;;;1.77;100.00;102544.19;5080433;28;20035;-71
2023/01/24 03:43:33;;;;;;;65.75;27.30;;;;;;;1.78;100.00;102551.47;5095442;28;20019;-71
2023/01/24 03:46:00;;;;;;;73.75;29.08;;;;;;;1.75;100.00;102553.00;5095606;28;20499;-71
2023/01/24 03:48:34;;;;;;;71.05;28.77;;;;;;;1.75;100.00;102538.91;5095528;28;20498;-70
2023/01/24 03:53:43;;;;;;;65.57;27.52;;;;;;;1.85;100.00;102551.56;5095210;28;20084;-72
2023/01/24 03:56:09;;;;;;;64.60;26.23;;;;;;;1.87;100.00;102552.81;5094341;28;20044;-71
2023/01/24 03:58:35;;;;;;;70.93;27.83;;;;;;;1.84;100.00;102539.50;5076996;28;20027;-71
2023/01/24 04:01:02;;;;;;;66.43;28.98;;;;;;;1.80;100.00;102543.41;5095410;28;20028;-72
2023/01/24 04:03:28;;;;;;;67.00;30.45;;;;;;;1.78;100.00;102551.47;5077110;28;20389;-71
2023/01/24 04:05:54;;;;;;;63.85;26.80;;;;;;;1.72;100.00;102545.31;5059876;28;20036;-72
2023/01/24 04:08:22;;;;;;;70.93;28.10;;;;;;;1.75;100.00;102552.22;5095094;28;20073;-71
2023/01/24 04:10:49;;;;;;;70.22;31.35;;;;;;;1.73;100.00;102546.13;5077228;28;20019;-72
2023/01/24 04:13:14;;;;;;;65.63;28.58;;;;;;;1.64;100.00;102529.50;5076917;28;20024;-71
2023/01/24 04:15:40;;;;;;;61.75;27.38;;;;;;;1.77;100.00;102545.00;5095005;28;20020;-71
2023/01/24 04:18:06;;;;;;;68.93;28.25;;;;;;;1.80;100.00;102544.25;5076832;28;20032;-71
2023/01/24 04:20:35;;;;;;;63.25;28.80;;;;;;;1.87;100.00;102549.19;5077030;28;20407;-72
2023/01/24 04:23:04;;;;;;;67.85;27.25;;;;;;;1.91;100.00;102550.88;5076870;28;20028;-72
2023/01/24 04:25:31;;;;;;;63.63;29.33;;;;;;;1.84;100.00;102545.13;5060470;28;20035;-71
2023/01/24 04:27:57;;;;;;;80.18;30.98;;;;;;;1.79;100.00;102556.72;5094675;28;20019;-72
2023/01/24 04:30:24;;;;;;;72.80;31.85;;;;;;;1.84;100.00;102559.22;5093405;28;20035;-72
2023/01/24 04:32:51;;;;;;;75.18;31.20;;;;;;;1.88;100.00;102560.09;5094451;28;20473;-71
2023/01/24 04:35:20;;;;;;;74.40;29.63;;;;;;;1.90;100.00;102548.41;5072565;28;20053;-71
2023/01/24 04:37:46;;;;;;;67.80;26.02;;;;;;;1.96;100.00;102563.00;5074483;28;20024;-73
2023/01/24 04:40:14;;;;;;;66.57;28.30;;;;;;;1.97;100.00;102568.28;5072903;28;20024;-71
2023/01/24 04:42:48;;;;;;;77.43;29.13;;;;;;;1.94;100.00;102560.59;5074163;28;20024;-71
2023/01/24 04:45:15;;;;;;;74.22;30.67;;;;;;;1.87;100.00;102561.28;5073602;28;20028;-71
2023/01/24 04:47:43;;;;;;;75.60;28.73;;;;;;;1.92;100.00;102568.59;5072704;28;20549;-71
2023/01/24 04:50:10;;;;;;;75.97;30.85;;;;;;;1.92;100.00;102565.78;5074430;28;20024;-72
2023/01/24 04:52:36;;;;;;;77.28;29.75;;;;;;;1.83;100.00;102560.41;5074139;28;20031;-71
2023/01/24 04:55:04;;;;;;;65.20;28.92;;;;;;;1.82;100.00;102572.06;5072597;28;20378;-71
2023/01/24 04:57:30;;;;;;;80.85;28.98;;;;;;;1.80;100.00;102582.88;5072506;28;20119;-71
2023/01/24 04:59:55;;;;;;;81.63;30.80;;;;;;;1.74;100.00;102570.31;5072935;28;20063;-71
2023/01/24 05:02:24;;;;;;;71.82;29.10;;;;;;;1.71;100.00;102571.88;5074612;28;20048;-71
2023/01/24 05:04:50;;;;;;;83.13;31.63;;;;;;;1.76;100.00;102577.19;5072861;28;20106;-71
2023/01/24 05:07:16;;;;;;;72.05;30.73;;;;;;;1.72;100.00;102573.50;5074222;28;20123;-71
2023/01/24 05:09:43;;;;;;;84.03;31.38;;;;;;;1.70;100.00;102577.91;5073837;28;20025;-71
2023/01/24 05:12:09;;;;;;;87.30;31.65;;;;;;;1.67;100.00;102590.72;5072660;28;20052;-70
2023/01/24 05:14:36;;;;;;;76.75;30.95;;;;;;;1.64;100.00;102585.84;5073757;28;20021;-71
2023/01/24 05:17:01;;;;;;;78.53;34.70;;;;;;;1.65;100.00;102575.41;5072453;28;20525;-71
2023/01/24 05:19:27;;;;;;;75.40;31.08;;;;;;;1.68;100.00;102575.44;5073525;28;20029;-70
2023/01/24 05:21:53;;;;;;;80.68;33.55;;;;;;;1.65;100.00;102586.66;5055506;28;20012;-71
2023/01/24 05:24:19;;;;;;;83.72;32.08;;;;;;;1.69;100.00;102590.34;5073517;28;20047;-71
2023/01/24 05:26:47;;;;;;;87.30;35.55;;;;;;;1.74;100.00;102587.22;5072097;28;20024;-72
2023/01/24 05:29:13;;;;;;;79.82;34.40;;;;;;;1.76;100.00;102587.66;5073711;28;20027;-70
2023/01/24 05:31:41;;;;;;;103.15;36.83;;;;;;;1.82;100.00;102586.16;5073210;28;20167;-72
2023/01/24 05:34:08;;;;;;;89.93;36.03;;;;;;;1.85;100.00;102585.38;5075522;28;20041;-72
2023/01/24 05:36:35;;;;;;;86.85;34.83;;;;;;;1.80;100.00;102586.50;5075387;28;20072;-73
2023/01/24 05:39:02;;;;;;;82.28;34.13;;;;;;;1.79;100.00;102595.38;5093300;28;20074;-73
2023/01/24 05:41:28;;;;;;;95.50;39.83;;;;;;;1.76;100.00;102588.47;5089688;28;20131;-73
2023/01/24 05:43:54;;;;;;;86.35;33.25;;;;;;;1.79;100.00;102589.72;5075114;28;20460;-72
2023/01/24 05:46:22;;;;;;;80.85;31.27;;;;;;;1.76;100.00;102587.66;5075639;28;20118;-73
2023/01/24 05:48:50;;;;;;;78.72;32.53;;;;;;;1.79;100.00;102586.91;5042870;28;20051;-73
2023/01/24 05:51:17;;;;;;;72.13;29.58;;;;;;;1.85;100.00;102589.00;5092654;28;20024;-73
2023/01/24 05:53:43;;;;;;;74.55;30.85;;;;;;;1.85;100.00;102586.19;5092758;28;20508;-73
2023/01/24 05:56:19;;;;;;;75.25;30.45;;;;;;;1.85;100.00;102588.19;5093433;28;20041;-73
2023/01/24 05:58:47;;;;;;;76.80;30.60;;;;;;;1.88;100.00;102590.28;5097673;28;20028;-73
2023/01/24 06:01:19;;;;;;;76.38;30.60;;;;;;;1.85;100.00;102594.66;5078705;28;20028;-74
2023/01/24 06:03:48;;;;;;;72.65;28.27;;;;;;;1.88;100.00;102604.38;5079725;28;20069;-74
2023/01/24 06:06:17;;;;;;;68.28;28.17;;;;;;;1.90;100.00;102611.25;5079605;28;20114;-72
2023/01/24 06:08:43;;;;;;;71.43;29.30;;;;;;;1.90;100.00;102599.16;5079466;28;20468;-72
2023/01/24 06:11:14;;;;;;;72.93;27.85;;;;;;;1.92;100.00;102606.06;5078674;28;20136;-74
2023/01/24 06:13:41;;;;;;;74.78;28.67;;;;;;;2.00;100.00;102611.81;5097508;28;20027;-73
2023/01/24 06:16:16;;;;;;;78.53;29.45;;;;;;;1.96;100.00;102606.13;5062472;28;20036;-73
2023/01/24 06:18:43;;;;;;;71.22;28.38;;;;;;;1.98;100.00;102612.19;5062334;28;20126;-72
2023/01/24 06:21:16;;;;;;;71.53;30.48;;;;;;;1.98;100.00;102615.03;5062610;28;20477;-73
2023/01/24 06:23:42;;;;;;;71.88;30.48;;;;;;;1.92;100.00;102605.25;5078544;28;20062;-72
2023/01/24 06:26:11;;;;;;;65.15;29.35;;;;;;;1.97;100.00;102610.56;5095706;28;20055;-71
2023/01/24 06:28:37;;;;;;;70.05;30.25;;;;;;;1.94;100.00;102604.88;5096793;28;20067;-71
2023/01/24 06:31:11;;;;;;;71.88;30.38;;;;;;;1.92;100.00;102613.69;5096883;28;20036;-72
2023/01/24 06:34:05;;;;;;;85.32;31.17;;;;;;;1.94;100.00;102610.50;5097007;28;20102;-72
2023/01/24 06:36:36;;;;;;;69.38;28.50;;;;;;;1.92;100.00;102616.53;5024244;28;20500;-72
2023/01/24 06:39:06;;;;;;;71.40;30.00;;;;;;;1.90;100.00;102619.72;5095060;28;20489;-72
2023/01/24 06:41:32;;;;;;;71.55;27.83;;;;;;;1.86;100.00;102627.28;5060567;28;20024;-72
2023/01/24 06:43:57;;;;;;;64.30;26.88;;;;;;;1.88;100.00;102624.09;5077228;28;20082;-73
2023/01/24 06:46:23;;;;;;;69.78;29.52;;;;;;;1.80;100.00;102623.16;5095352;28;20435;-74
2023/01/24 06:48:48;;;;;;;65.55;28.63;;;;;;;1.84;100.00;102632.50;5095114;28;20061;-72
2023/01/24 06:51:14;;;;;;;69.45;29.77;;;;;;;1.73;100.00;102630.69;5094428;28;20082;-73
2023/01/24 06:53:40;;;;;;;72.38;27.77;;;;;;;1.71;100.00;102633.03;5094573;28;20073;-71
2023/01/24 06:56:06;;;;;;;74.10;28.33;;;;;;;1.73;100.00;102645.59;5094410;28;20465;-73
2023/01/24 06:58:31;;;;;;;64.10;27.23;;;;;;;1.73;100.00;102641.94;5076005;28;20024;-74
2023/01/24 07:00:57;;;;;;;70.05;28.60;;;;;;;1.78;100.00;102650.09;5093838;28;20024;-74
2023/01/24 07:03:22;;;;;;;60.38;27.15;;;;;;;1.76;100.00;102647.66;5075554;28;20031;-73
2023/01/24 07:05:48;;;;;;;76.82;29.55;;;;;;;1.84;100.00;102659.88;5076748;28;20030;-74
2023/01/24 07:08:13;;;;;;;75.78;30.20;;;;;;;1.86;100.00;102654.66;5095522;28;20032;-72
2023/01/24 07:10:39;;;;;;;69.93;28.65;;;;;;;1.86;100.00;102651.84;5095989;28;20028;-72
2023/01/24 07:13:05;;;;;;;71.05;29.67;;;;;;;1.87;100.00;102654.28;5096021;28;20056;-73
2023/01/24 07:15:30;;;;;;;75.05;28.35;;;;;;;1.93;100.00;102649.16;5096062;28;20028;-71
2023/01/24 07:17:56;;;;;;;75.10;28.88;;;;;;;1.96;100.00;102659.69;5095740;28;20027;-73
2023/01/24 07:20:22;;;;;;;70.70;28.90;;;;;;;1.89;100.00;102656.75;5077892;28;20105;-73
2023/01/24 07:22:48;;;;;;;67.97;27.50;;;;;;;1.88;100.00;102647.47;5060805;28;20477;-71
2023/01/24 07:25:15;;;;;;;61.63;27.35;;;;;;;1.96;100.00;102659.69;5077570;28;20480;-72
2023/01/24 07:27:42;;;;;;;64.15;26.95;;;;;;;2.01;100.00;102655.72;5060871;28;20028;-72
2023/01/24 07:30:10;;;;;;;61.25;27.23;;;;;;;2.07;100.00;102657.06;5077393;28;20032;-72
2023/01/24 07:32:36;;;;;;;69.85;27.50;;;;;;;2.06;100.00;102655.41;5095366;28;20118;-71
2023/01/24 07:35:02;;;;;;;75.30;29.50;;;;;;;2.11;100.00;102650.28;5095277;28;20067;-72
2023/01/24 07:37:27;;;;;;;69.85;30.08;;;;;;;2.11;100.00;102646.63;5060398;28;20036;-71
2023/01/24 07:39:52;;;;;;;70.13;28.75;;;;;;;2.05;100.00;102656.59;5095587;28;20024;-72
2023/01/24 07:42:18;;;;;;;68.30;29.75;;;;;;;2.04;100.00;102660.63;5095338;28;20437;-72
2023/01/24 07:44:43;;;;;;;71.88;30.67;;;;;;;1.98;100.00;102657.31;5095233;28;20081;-72
2023/01/24 07:47:08;;;;;;;68.63;29.58;;;;;;;1.88;100.00;102657.94;5095009;28;20385;-74
2023/01/24 07:49:34;;;;;;;69.78;29.88;;;;;;;1.88;100.00;102666.38;5060362;28;20023;-72
2023/01/24 07:51:59;;;;;;;68.93;28.60;;;;;;;1.88;100.00;102655.13;5077353;28;20041;-70
2023/01/24 07:54:24;;;;;;;71.80;28.75;;;;;;;2.02;100.00;102663.81;5095066;28;20465;-72
2023/01/24 07:56:51;;;;;;;68.60;26.60;;;;;;;2.02;100.00;102672.28;5077092;28;20108;-72
2023/01/24 07:59:16;;;;;;;70.13;29.08;;;;;;;1.92;100.00;102665.25;5094886;28;20024;-71
2023/01/24 08:01:42;;;;;;;64.13;26.48;;;;;;;1.95;100.00;102669.31;5094783;28;20012;-72
2023/01/24 08:04:07;;;;;;;71.68;30.08;;;;;;;2.04;100.00;102669.09;5094943;28;20026;-72
2023/01/24 08:06:32;;;;;;;65.70;29.15;;;;;;;2.16;100.00;102657.59;5095357;28;20027;-73
2023/01/24 08:08:58;;;;;;;63.90;28.67;;;;;;;2.14;100.00;102655.19;5094620;28;20024;-72
2023/01/24 08:11:23;;;;;;;63.22;26.38;;;;;;;2.20;100.00;102661.28;5094428;28;20052;-72
2023/01/24 08:13:50;;;;;;;79.53;28.60;;;;;;;2.23;100.00;102660.56;5093405;28;20558;-75
2023/01/24 08:16:15;;;;;;;69.63;27.77;;;;;;;2.28;100.00;102654.59;5094724;28;20032;-75
2023/01/24 08:18:40;;;;;;;61.10;27.80;;;;;;;2.40;100.00;102650.72;5091607;28;20077;-75
2023/01/24 08:21:08;;;;;;;70.60;27.05;;;;;;;2.49;100.00;102668.22;5091323;28;20032;-74
2023/01/24 08:23:33;;;;;;;70.88;28.50;;;;;;;2.55;100.00;102664.69;5094649;28;20020;-74
2023/01/24 08:26:01;;;;;;;74.78;29.10;;;;;;;2.60;100.00;102660.72;5059713;28;20046;-73
2023/01/24 08:28:29;;;;;;;70.95;28.25;;;;;;;2.65;100.00;102666.03;5076460;28;20028;-74
2023/01/24 08:30:59;;;;;;;67.28;28.85;;;;;;;2.64;100.00;102670.06;5076460;28;20110;-74
2023/01/24 08:33:26;;;;;;;68.03;27.10;;;;;;;2.70;100.00;102662.91;5094478;28;20043;-75
2023/01/24 08:35:52;;;;;;;60.45;27.63;;;;;;;2.70;100.00;102660.88;5093034;28;20126;-74
2023/01/24 08:38:18;;;;;;;70.40;30.23;;;;;;;2.72;100.00;102669.81;5076235;28;20046;-74
2023/01/24 08:40:45;;;;;;;68.45;27.90;;;;;;;2.75;100.00;102673.84;5076050;28;20050;-76
2023/01/24 08:43:11;;;;;;;65.97;27.60;;;;;;;2.73;100.00;102671.44;5094073;28;20039;-75
2023/01/24 08:45:38;;;;;;;64.35;28.65;;;;;;;2.80;100.00;102673.53;5094556;28;20039;-78
2023/01/24 08:48:03;;;;;;;72.75;28.90;;;;;;;2.79;100.00;102674.72;5059394;28;20027;-81
2023/01/24 08:50:30;;;;;;;67.10;29.70;;;;;;;2.78;100.00;102667.47;5076211;28;20024;-79
2023/01/24 08:52:57;;;;;;;68.65;28.23;;;;;;;2.83;100.00;102671.97;5094084;28;20469;-81
2023/01/24 08:55:24;;;;;;;66.60;28.00;;;;;;;2.78;100.00;102670.28;5076058;28;20032;-81
2023/01/24 08:57:49;;;;;;;73.05;28.15;;;;;;;2.75;100.00;102671.84;5076174;28;20034;-81
2023/01/24 09:00:18;;;;;;;67.30;26.92;;;;;;;2.82;100.00;102679.63;5076164;28;20107;-84
2023/01/24 09:02:44;;;;;;;61.63;27.65;;;;;;;2.93;100.00;102683.41;5094288;28;20050;-82
2023/01/24 09:05:09;;;;;;;62.80;28.17;;;;;;;3.13;100.00;102673.59;5076289;28;20062;-82
2023/01/24 09:07:41;;;;;;;65.82;30.50;;;;;;;3.20;100.00;102675.69;5076263;28;20469;-83
2023/01/24 09:10:08;;;;;;;;;;;;;;;3.39;100.00;102674.72;5060157;28;20174;-81
2023/01/24 09:12:34;;;;;;;76.28;29.63;;;;;;;3.48;100.00;102678.03;5094074;28;20002;-81
2023/01/24 09:15:00;;;;;;;72.18;30.75;;;;;;;3.47;100.00;102680.09;5094546;28;20055;-82
2023/01/24 09:17:27;;;;;;;74.90;31.13;;;;;;;3.49;100.00;102679.69;5076041;28;20036;-82
2023/01/24 09:19:55;;;;;;;64.65;28.70;;;;;;;3.40;100.00;102682.81;5093644;28;20059;-83
2023/01/24 09:22:21;;;;;;;63.42;28.15;;;;;;;3.35;100.00;102677.50;5075654;28;20024;-79
2023/01/24 09:24:50;;;;;;;61.95;27.98;;;;;;;3.37;100.00;102686.44;5058474;28;20031;-79
2023/01/24 09:27:17;;;;;;;68.75;32.80;;;;;;;3.36;100.00;102678.31;5073964;28;20025;-79
2023/01/24 09:29:42;;;;;;;77.78;34.97;;;;;;;3.37;100.00;102682.78;5084637;28;20031;-78
2023/01/24 09:32:08;;;;;;;73.82;33.60;;;;;;;3.48;100.00;102684.53;5075105;28;20489;-78
2023/01/24 09:34:34;;;;;;;80.28;32.90;;;;;;;3.36;100.00;102681.97;5072154;28;20128;-78
2023/01/24 09:37:01;;;;;;;68.97;29.15;;;;;;;3.39;100.00;102688.84;5074405;28;20424;-79
2023/01/24 09:39:26;;;;;;;67.43;29.60;;;;;;;3.35;100.00;102683.16;5074628;28;20048;-78
2023/01/24 09:42:10;;;;;;;76.03;31.48;;;;;;;3.47;100.00;102680.09;5073076;28;20400;-81
2023/01/24 09:44:44;;;;;;;64.93;28.13;;;;;;;3.64;100.00;102676.63;5072564;28;20032;-78
2023/01/24 09:48:05;;;;;;;63.22;29.17;;;;;;;3.77;100.00;102680.03;5055167;28;20382;-80
2023/01/24 09:50:51;;;;;;;68.82;29.75;;;;;;;3.67;100.00;102679.91;5058298;28;20515;-80
2023/01/24 09:53:39;;;;;;;69.13;26.38;;;;;;;3.65;100.00;102675.44;5072537;28;20044;-81
2023/01/24 09:56:33;;;;;;;67.38;30.85;;;;;;;3.82;100.00;102674.00;5074233;28;20072;-80
2023/01/24 09:59:21;;;;;;;66.35;28.17;;;;;;;4.00;100.00;102672.19;5073969;28;20043;-84
2023/01/24 10:02:17;;;;;;;65.70;29.10;;;;;;;4.08;100.00;102671.06;5068451;28;20032;-83
2023/01/24 10:04:44;;;;;;;67.15;31.20;;;;;;;4.04;100.00;102658.09;5072852;28;20048;-78
2023/01/24 10:07:28;;;;;;;62.25;28.75;;;;;;;4.06;100.00;102667.81;5072420;28;20025;-78
2023/01/24 10:10:27;;;;;;;66.97;29.58;;;;;;;4.14;100.00;102659.38;5073557;28;20036;-82
2023/01/24 10:13:16;;;;;;;69.13;29.33;;;;;;;4.32;100.00;102654.69;5073380;28;20035;-78
2023/01/24 10:16:07;;;;;;;64.00;27.05;;;;;;;4.38;100.00;102650.28;5073338;28;20034;-78
2023/01/24 10:18:56;;;;;;;61.13;26.77;;;;;;;4.51;100.00;102640.28;5072309;28;20059;-78
2023/01/24 10:21:42;;;;;;;64.07;26.85;;;;;;;4.47;100.00;102636.59;5073292;28;20372;-83
2023/01/24 10:24:11;;;;;;;62.00;27.45;;;;;;;4.57;100.00;102633.03;5073263;28;20029;-81
2023/01/24 10:26:43;;;;;;;67.65;28.65;;;;;;;4.76;100.00;102640.44;5055099;28;20032;-79
2023/01/24 10:29:24;;;;;;;64.25;27.60;;;;;;;4.74;100.00;102634.34;5071702;28;20036;-78
2023/01/24 10:32:03;;;;;;;63.90;27.45;;;;;;;4.65;100.00;102629.06;5073414;28;20418;-79
2023/01/24 10:34:40;;;;;;;62.80;29.02;;;;;;;4.72;100.00;102623.41;5078609;28;20048;-77
2023/01/24 10:37:14;;;;;;;59.40;28.10;;;;;;;4.88;100.00;102626.75;5058587;28;20384;-76
2023/01/24 10:39:40;;;;;;;64.18;27.70;;;;;;;4.94;100.00;102625.19;5075075;28;20028;-76
2023/01/24 10:42:30;;;;;;;62.53;25.27;;;;;;;4.98;100.00;102625.19;5075021;28;20073;-79
2023/01/24 10:45:03;;;;;;;64.28;29.95;;;;;;;4.93;100.00;102623.53;5096924;28;20445;-80
2023/01/24 10:47:40;;;;;;;66.63;30.23;;;;;;;4.85;100.00;102623.91;5061869;28;20043;-80
2023/01/24 10:50:09;;;;;;;65.82;29.83;;;;;;;4.89;100.00;102621.91;5075124;28;20040;-80
2023/01/24 10:52:34;;;;;;;63.25;27.17;;;;;;;4.98;100.00;102616.69;5078284;28;20439;-80
2023/01/24 10:55:01;;;;;;;65.70;28.08;;;;;;;5.03;100.00;102621.16;5061899;28;20024;-81
2023/01/24 10:57:40;;;;;;;66.07;29.90;;;;;;;5.07;100.00;102613.47;5078343;28;20024;-81
2023/01/24 11:00:22;;;;;;;58.70;28.38;;;;;;;5.03;100.00;102618.31;5078682;28;20028;-80
2023/01/24 11:02:52;;;;;;;;;;;;;;;5.12;100.00;102615.94;5097463;28;20105;-81
2023/01/24 11:05:19;;;;;;;59.85;26.80;;;;;;;5.20;100.00;102614.75;5079788;28;19934;-81
2023/01/24 11:07:51;;;;;;;62.88;28.85;;;;;;;5.20;100.00;102612.72;5078619;28;20038;-81
2023/01/24 11:10:16;;;;;;;;;;;;;;;5.25;100.00;102615.16;5100822;28;20083;-81
2023/01/24 11:12:56;;;;;;;60.30;28.88;;;;;;;5.31;100.00;102605.06;5098124;28;19943;-81
2023/01/24 11:15:33;;;;;;;59.65;24.42;;;;;;;5.22;100.00;102606.66;5060176;28;20060;-80
2023/01/24 11:17:58;;;;;;;53.13;23.90;;;;;;;5.25;100.00;102600.22;5078013;28;20059;-81
2023/01/24 11:20:35;;;;;;;61.17;28.77;;;;;;;5.31;100.00;102598.59;5096199;28;20023;-80
2023/01/24 11:23:18;;;;;;;64.22;25.90;;;;;;;5.41;100.00;102599.81;5095818;28;20085;-81
2023/01/24 11:26:03;;;;;;;53.80;25.80;;;;;;;5.25;100.00;102595.31;5077247;28;20389;-81
2023/01/24 11:28:37;;;;;;;58.75;27.08;;;;;;;5.09;100.00;102594.06;5095772;28;20030;-80
2023/01/24 11:31:07;;;;;;;54.72;25.17;;;;;;;5.24;100.00;102604.25;5077905;28;20024;-81
2023/01/24 11:33:48;;;;;;;59.67;25.75;;;;;;;5.36;100.00;102601.84;5077823;28;20472;-82
2023/01/24 11:36:55;;;;;;;54.05;27.50;;;;;;;5.38;100.00;102601.44;5095740;28;20040;-80
2023/01/24 11:39:40;;;;;;;53.47;24.92;;;;;;;5.22;100.00;102595.31;5077541;28;20028;-81
2023/01/24 11:42:28;;;;;;;59.38;25.15;;;;;;;5.21;100.00;102593.69;5095949;28;20068;-82
2023/01/24 11:45:19;;;;;;;62.03;24.67;;;;;;;5.13;100.00;102603.38;5094910;28;20491;-81
2023/01/24 11:48:08;;;;;;;59.30;25.30;;;;;;;5.02;100.00;102594.84;5096019;28;20024;-81
2023/01/24 11:50:53;;;;;;;55.72;25.50;;;;;;;4.90;100.00;102598.03;5077875;28;20031;-81
2023/01/24 11:53:44;;;;;;;52.47;24.92;;;;;;;4.90;100.00;102596.03;5077109;28;20077;-80
2023/01/24 11:56:34;;;;;;;55.17;24.65;;;;;;;4.79;100.00;102595.16;5077398;28;20376;-81
2023/01/24 11:59:02;;;;;;;58.28;25.13;;;;;;;4.77;100.00;102597.56;5095763;28;20042;-81
2023/01/24 12:01:49;;;;;;;54.83;25.75;;;;;;;4.80;100.00;102596.78;5077109;28;20038;-81